createdAt,value
2018-11-12T00:02:11.185Z,8.80
2018-11-12T00:04:39.081Z,8.70
2018-11-12T00:07:06.807Z,8.80
2018-11-12T00:09:34.495Z,8.80
2018-11-12T00:12:02.195Z,8.70
2018-11-12T00:14:29.929Z,8.70
2018-11-12T00:16:57.664Z,8.70
2018-11-12T00:19:25.297Z,8.70
2018-11-12T00:21:52.963Z,8.70
2018-11-12T00:24:20.589Z,8.60
2018-11-12T00:26:48.289Z,8.60
2018-11-12T00:29:16.284Z,8.60
2018-11-12T00:31:43.931Z,8.70
2018-11-12T00:34:11.588Z,8.70
2018-11-12T00:36:39.229Z,8.70
2018-11-12T00:39:09.456Z,8.70
2018-11-12T00:41:37.080Z,8.70
2018-11-12T00:44:04.862Z,8.70
2018-11-12T00:46:32.442Z,8.70
2018-11-12T00:49:00.039Z,8.60
2018-11-12T00:51:27.664Z,8.60
2018-11-12T00:53:55.286Z,8.60
2018-11-12T00:56:22.914Z,8.60
2018-11-12T00:58:51.033Z,8.50
2018-11-12T01:01:18.676Z,8.60
2018-11-12T01:03:46.284Z,8.60
2018-11-12T01:06:13.909Z,8.40
2018-11-12T01:08:41.665Z,8.50
2018-11-12T01:11:09.725Z,8.50
2018-11-12T01:13:37.322Z,8.50
2018-11-12T01:16:05.563Z,8.50
2018-11-12T01:18:33.631Z,8.50
2018-11-12T01:21:01.214Z,8.50
2018-11-12T01:23:28.784Z,8.60
2018-11-12T01:25:56.445Z,8.60
2018-11-12T01:28:24.077Z,8.50
2018-11-12T01:30:55.206Z,8.50
2018-11-12T01:33:22.826Z,8.40
2018-11-12T01:35:50.476Z,8.40
2018-11-12T01:38:18.130Z,8.40
2018-11-12T01:40:45.792Z,8.40
2018-11-12T01:43:13.438Z,8.40
2018-11-12T01:45:41.042Z,8.40
2018-11-12T01:48:08.621Z,8.40
2018-11-12T01:50:42.964Z,8.40
2018-11-12T01:53:10.561Z,8.40
2018-11-12T01:55:38.134Z,8.40
2018-11-12T01:58:05.782Z,8.40
2018-11-12T02:00:33.468Z,8.40
2018-11-12T02:03:01.066Z,8.40
2018-11-12T02:05:28.653Z,8.40
2018-11-12T02:07:56.267Z,8.40
2018-11-12T02:10:23.874Z,8.40
2018-11-12T02:12:51.665Z,8.40
2018-11-12T02:15:20.382Z,8.40
2018-11-12T02:17:48.570Z,8.40
2018-11-12T02:20:17.348Z,8.30
2018-11-12T02:22:46.041Z,8.40
2018-11-12T02:25:14.258Z,8.40
2018-11-12T02:27:41.887Z,8.40
2018-11-12T02:30:14.234Z,8.40
2018-11-12T02:32:41.954Z,8.40
2018-11-12T02:35:10.090Z,8.50
2018-11-12T02:37:38.240Z,8.40
2018-11-12T02:40:08.253Z,8.50
2018-11-12T02:42:35.921Z,8.50
2018-11-12T02:45:03.809Z,8.50
2018-11-12T02:47:31.632Z,8.40
2018-11-12T02:49:59.487Z,8.40
2018-11-12T02:52:27.385Z,8.40
2018-11-12T02:54:55.157Z,8.40
2018-11-12T02:57:23.025Z,8.40
2018-11-12T02:59:51.031Z,8.40
2018-11-12T03:02:18.641Z,8.40
2018-11-12T03:04:46.277Z,8.40
2018-11-12T03:07:14.107Z,8.40
2018-11-12T03:09:41.722Z,8.30
2018-11-12T03:12:09.452Z,8.30
2018-11-12T03:14:37.092Z,8.30
2018-11-12T03:17:05.071Z,8.30
2018-11-12T03:19:32.690Z,8.40
2018-11-12T03:22:00.740Z,8.40
2018-11-12T03:24:28.496Z,8.30
2018-11-12T03:26:56.180Z,8.30
2018-11-12T03:29:23.840Z,8.30
2018-11-12T03:31:51.500Z,8.30
2018-11-12T03:34:19.586Z,8.30
2018-11-12T03:36:47.262Z,8.30
2018-11-12T03:39:14.924Z,8.30
2018-11-12T03:41:42.686Z,8.20
2018-11-12T03:44:10.304Z,8.20
2018-11-12T03:46:38.030Z,8.20
2018-11-12T03:49:05.700Z,8.20
2018-11-12T03:51:33.388Z,8.20
2018-11-12T03:54:01.072Z,8.20
2018-11-12T03:56:28.717Z,8.20
2018-11-12T03:58:56.314Z,8.20
2018-11-12T04:01:28.668Z,8.20
2018-11-12T04:03:56.332Z,8.20
2018-11-12T04:06:23.911Z,8.20
2018-11-12T04:08:51.548Z,8.20
2018-11-12T04:11:19.521Z,8.20
2018-11-12T04:13:47.251Z,8.20
2018-11-12T04:16:14.868Z,8.20
2018-11-12T04:18:42.540Z,8.20
2018-11-12T04:21:10.175Z,8.10
2018-11-12T04:23:37.831Z,8.10
2018-11-12T04:26:05.497Z,8.10
2018-11-12T04:28:33.460Z,8.10
2018-11-12T04:31:01.096Z,8.10
2018-11-12T04:33:28.790Z,8.10
2018-11-12T04:35:56.491Z,8.10
2018-11-12T04:38:24.089Z,8.20
2018-11-12T04:40:51.713Z,8.10
2018-11-12T04:43:19.411Z,8.20
2018-11-12T04:45:47.035Z,8.20
2018-11-12T04:48:14.686Z,8.20
2018-11-12T04:50:42.325Z,8.10
2018-11-12T04:53:09.921Z,8.20
2018-11-12T04:55:37.542Z,8.20
2018-11-12T04:58:05.137Z,8.20
2018-11-12T05:00:33.080Z,8.20
2018-11-12T05:03:00.709Z,8.20
2018-11-12T05:05:28.522Z,8.20
2018-11-12T05:07:56.205Z,8.30
2018-11-12T05:10:24.920Z,8.30
2018-11-12T05:12:52.964Z,8.40
2018-11-12T05:15:21.498Z,8.40
2018-11-12T05:17:49.137Z,8.40
2018-11-12T05:20:18.244Z,8.50
2018-11-12T05:22:45.877Z,8.50
2018-11-12T05:25:13.420Z,8.50
2018-11-12T05:27:41.026Z,8.50
2018-11-12T05:30:12.571Z,8.50
2018-11-12T05:32:40.305Z,8.60
2018-11-12T05:35:07.899Z,8.60
2018-11-12T05:37:35.872Z,8.60
2018-11-12T05:40:05.661Z,8.70
2018-11-12T05:42:33.301Z,8.80
2018-11-12T05:45:00.963Z,8.70
2018-11-12T05:47:28.607Z,8.70
2018-11-12T05:49:56.247Z,8.70
2018-11-12T05:52:23.901Z,8.70
2018-11-12T05:54:51.501Z,8.70
2018-11-12T05:57:19.441Z,8.80
2018-11-12T05:59:47.085Z,8.70
2018-11-12T06:02:14.630Z,8.70
2018-11-12T06:04:42.296Z,8.70
2018-11-12T06:07:09.928Z,8.80
2018-11-12T06:09:37.581Z,8.70
2018-11-12T06:12:05.672Z,8.70
2018-11-12T06:14:33.295Z,8.70
2018-11-12T06:17:00.874Z,8.60
2018-11-12T06:19:28.561Z,8.70
2018-11-12T06:21:56.150Z,8.70
2018-11-12T06:24:23.739Z,8.70
2018-11-12T06:26:51.404Z,8.60
2018-11-12T06:29:19.024Z,8.70
2018-11-12T06:31:46.607Z,8.70
2018-11-12T06:34:14.268Z,8.70
2018-11-12T06:36:41.902Z,8.70
2018-11-12T06:39:09.764Z,8.70
2018-11-12T06:41:37.528Z,8.80
2018-11-12T06:44:05.894Z,8.80
2018-11-12T06:46:33.590Z,8.80
2018-11-12T06:49:01.236Z,8.90
2018-11-12T06:51:28.915Z,9.00
2018-11-12T06:53:56.578Z,9.10
2018-11-12T06:56:24.186Z,9.20
2018-11-12T06:58:51.741Z,9.40
2018-11-12T07:01:19.314Z,9.40
2018-11-12T07:03:46.981Z,9.50
2018-11-12T07:06:14.788Z,9.50
2018-11-12T07:08:42.747Z,9.50
2018-11-12T07:11:10.385Z,9.60
2018-11-12T07:13:38.169Z,9.60
2018-11-12T07:16:06.133Z,9.70
2018-11-12T07:18:33.796Z,9.70
2018-11-12T07:21:01.426Z,9.80
2018-11-12T07:23:29.018Z,9.90
2018-11-12T07:25:56.625Z,9.80
2018-11-12T07:28:24.165Z,9.90
2018-11-12T07:30:51.860Z,10.00
2018-11-12T07:33:19.433Z,10.00
2018-11-12T07:35:47.021Z,10.10
2018-11-12T07:38:14.739Z,10.10
2018-11-12T07:40:42.382Z,10.00
2018-11-12T07:43:09.998Z,10.10
2018-11-12T07:45:37.621Z,10.20
2018-11-12T07:48:05.267Z,10.30
2018-11-12T07:50:32.914Z,10.40
2018-11-12T07:53:00.506Z,10.50
2018-11-12T07:55:28.570Z,10.50
2018-11-12T07:57:57.026Z,10.50
2018-11-12T08:00:26.985Z,10.70
2018-11-12T08:02:59.215Z,10.80
2018-11-12T08:05:26.875Z,11.00
2018-11-12T08:07:54.567Z,11.10
2018-11-12T08:10:22.199Z,11.20
2018-11-12T08:12:49.801Z,11.20
2018-11-12T08:15:18.703Z,11.40
2018-11-12T08:17:46.462Z,11.40
2018-11-12T08:20:15.381Z,11.40
2018-11-12T08:22:44.222Z,11.30
2018-11-12T08:25:12.227Z,11.40
2018-11-12T08:27:40.332Z,11.40
2018-11-12T08:30:11.609Z,11.50
2018-11-12T08:32:39.140Z,11.60
2018-11-12T08:35:06.806Z,11.60
2018-11-12T08:37:34.468Z,11.50
2018-11-12T08:40:02.615Z,11.60
2018-11-12T08:42:31.509Z,11.50
2018-11-12T08:44:59.154Z,11.50
2018-11-12T08:47:26.750Z,11.40
2018-11-12T08:49:54.368Z,11.40
2018-11-12T08:52:22.041Z,11.40
2018-11-12T08:54:49.615Z,11.30
2018-11-12T08:57:17.187Z,11.30
2018-11-12T08:59:44.872Z,11.20
2018-11-12T09:02:12.449Z,11.30
2018-11-12T09:04:40.061Z,11.30
2018-11-12T09:07:07.812Z,11.40
2018-11-12T09:09:35.427Z,11.40
2018-11-12T09:12:03.002Z,11.10
2018-11-12T09:14:30.667Z,11.20
2018-11-12T09:16:58.290Z,11.40
2018-11-12T09:19:25.911Z,11.20
2018-11-12T09:21:53.603Z,11.40
2018-11-12T09:24:21.464Z,11.60
2018-11-12T09:26:49.144Z,11.50
2018-11-12T09:29:16.792Z,11.50
2018-11-12T09:31:44.478Z,11.60
2018-11-12T09:34:12.075Z,11.70
2018-11-12T09:36:39.829Z,11.60
2018-11-12T09:39:09.659Z,11.90
2018-11-12T09:41:37.342Z,12.20
2018-11-12T09:44:05.357Z,12.20
2018-11-12T09:46:32.961Z,12.00
2018-11-12T09:49:00.682Z,12.00
2018-11-12T09:51:28.348Z,12.00
2018-11-12T09:53:56.088Z,11.90
2018-11-12T09:56:24.146Z,11.60
2018-11-12T09:58:51.730Z,11.60
2018-11-12T10:01:19.985Z,11.60
2018-11-12T10:03:48.373Z,11.50
2018-11-12T10:06:16.201Z,11.60
2018-11-12T10:08:44.501Z,11.80
2018-11-12T10:11:13.272Z,11.90
2018-11-12T10:13:40.858Z,12.00
2018-11-12T10:16:09.021Z,12.00
2018-11-12T10:18:33.766Z,12.00
2018-11-12T10:21:01.478Z,12.00
2018-11-12T10:23:29.125Z,12.10
2018-11-12T10:25:56.744Z,12.10
2018-11-12T10:28:24.426Z,12.10
2018-11-12T10:30:52.164Z,12.20
2018-11-12T10:33:20.003Z,12.40
2018-11-12T10:35:47.669Z,12.50
2018-11-12T10:38:15.342Z,12.50
2018-11-12T10:40:42.999Z,12.60
2018-11-12T10:43:10.691Z,12.70
2018-11-12T10:45:38.395Z,12.80
2018-11-12T10:48:06.607Z,13.00
2018-11-12T10:50:34.281Z,13.20
2018-11-12T10:53:02.025Z,13.50
2018-11-12T10:55:29.973Z,13.90
2018-11-12T10:57:57.557Z,14.50
2018-11-12T11:00:35.372Z,15.00
2018-11-12T11:03:12.082Z,15.60
2018-11-12T11:05:40.932Z,15.70
2018-11-12T11:08:08.664Z,16.30
2018-11-12T11:10:36.353Z,16.80
2018-11-12T11:13:05.158Z,17.70
2018-11-12T11:15:33.697Z,18.00
2018-11-12T11:18:01.286Z,18.20
2018-11-12T11:20:29.438Z,19.10
2018-11-12T11:23:00.581Z,19.20
2018-11-12T11:25:28.382Z,19.90
2018-11-12T11:27:56.012Z,19.90
2018-11-12T11:30:24.062Z,19.40
2018-11-12T11:32:51.706Z,19.30
2018-11-12T11:35:20.136Z,19.60
2018-11-12T11:37:47.789Z,19.10
2018-11-12T11:40:16.948Z,18.50
2018-11-12T11:42:44.563Z,18.50
2018-11-12T11:45:13.262Z,18.50
2018-11-12T11:47:41.530Z,19.50
2018-11-12T11:50:11.409Z,19.90
2018-11-12T11:52:39.003Z,20.30
2018-11-12T11:55:09.023Z,20.90
2018-11-12T11:57:36.727Z,20.90
2018-11-12T12:00:08.628Z,21.10
2018-11-12T12:02:36.561Z,22.40
2018-11-12T12:05:05.974Z,22.50
2018-11-12T12:07:34.280Z,23.30
2018-11-12T12:10:01.979Z,23.30
2018-11-12T12:12:29.585Z,23.30
2018-11-12T12:14:57.186Z,23.20
2018-11-12T12:17:24.856Z,23.40
2018-11-12T12:19:52.620Z,23.10
2018-11-12T12:22:20.185Z,22.00
2018-11-12T12:24:47.974Z,23.10
2018-11-12T12:27:15.600Z,23.40
2018-11-12T12:29:43.292Z,23.20
2018-11-12T12:32:10.949Z,23.80
2018-11-12T12:34:38.558Z,23.20
2018-11-12T12:37:06.232Z,23.60
2018-11-12T12:39:33.883Z,23.90
2018-11-12T12:42:01.549Z,25.10
2018-11-12T12:44:31.055Z,25.00
2018-11-12T12:46:58.591Z,23.80
2018-11-12T12:49:26.315Z,24.00
2018-11-12T12:51:53.860Z,22.90
2018-11-12T12:54:21.763Z,23.60
2018-11-12T12:56:49.505Z,24.10
2018-11-12T12:59:17.081Z,23.60
2018-11-12T13:01:44.784Z,24.20
2018-11-12T13:04:12.416Z,24.60
2018-11-12T13:06:40.090Z,24.90
2018-11-12T13:09:09.008Z,24.00
2018-11-12T13:11:36.624Z,23.90
2018-11-12T13:14:04.518Z,23.30
2018-11-12T13:16:32.389Z,23.80
2018-11-12T13:18:59.980Z,22.80
2018-11-12T13:21:27.720Z,22.20
2018-11-12T13:23:55.268Z,22.80
2018-11-12T13:26:22.891Z,23.90
2018-11-12T13:28:50.912Z,24.50
2018-11-12T13:31:19.228Z,23.60
2018-11-12T13:33:46.844Z,23.20
2018-11-12T13:36:14.587Z,23.10
2018-11-12T13:38:42.270Z,23.00
2018-11-12T13:41:09.914Z,22.40
2018-11-12T13:43:37.592Z,22.60
2018-11-12T13:46:05.652Z,23.20
2018-11-12T13:48:33.530Z,23.40
2018-11-12T13:51:01.258Z,23.50
2018-11-12T13:53:29.247Z,22.50
2018-11-12T13:55:56.824Z,22.10
2018-11-12T13:58:24.540Z,21.50
2018-11-12T14:00:52.219Z,21.80
2018-11-12T14:03:19.826Z,21.20
2018-11-12T14:05:47.488Z,20.90
2018-11-12T14:08:15.152Z,21.00
2018-11-12T14:10:42.898Z,19.20
2018-11-12T14:13:11.478Z,18.10
2018-11-12T14:15:39.688Z,16.60
2018-11-12T14:18:07.318Z,15.70
2018-11-12T14:20:35.429Z,15.10
2018-11-12T14:23:02.963Z,14.60
2018-11-12T14:25:30.539Z,14.10
2018-11-12T14:27:58.501Z,13.90
2018-11-12T14:30:28.142Z,13.40
2018-11-12T14:32:56.065Z,13.40
2018-11-12T14:35:23.991Z,13.20
2018-11-12T14:37:51.597Z,13.10
2018-11-12T14:40:19.394Z,12.80
2018-11-12T14:42:47.308Z,12.80
2018-11-12T14:45:16.171Z,12.50
2018-11-12T14:47:44.234Z,12.40
2018-11-12T14:50:11.951Z,12.40
2018-11-12T14:52:39.961Z,12.30
2018-11-12T14:55:10.251Z,12.10
2018-11-12T14:57:37.971Z,12.00
2018-11-12T15:00:11.523Z,11.90
2018-11-12T15:02:39.149Z,11.80
2018-11-12T15:05:06.928Z,11.70
2018-11-12T15:07:34.562Z,11.70
2018-11-12T15:10:02.623Z,11.50
2018-11-12T15:12:30.287Z,11.50
2018-11-12T15:14:58.005Z,11.50
2018-11-12T15:17:25.689Z,11.40
2018-11-12T15:19:53.284Z,11.40
2018-11-12T15:22:20.899Z,11.30
2018-11-12T15:24:48.548Z,11.30
2018-11-12T15:27:16.232Z,11.20
2018-11-12T15:29:44.001Z,11.10
2018-11-12T15:32:11.664Z,11.10
2018-11-12T15:34:40.328Z,11.00
2018-11-12T15:37:08.193Z,11.00
2018-11-12T15:39:35.706Z,10.90
2018-11-12T15:42:03.320Z,10.90
2018-11-12T15:44:30.954Z,10.90
2018-11-12T15:46:58.554Z,10.90
2018-11-12T15:49:26.176Z,10.80
2018-11-12T15:51:53.904Z,10.90
2018-11-12T15:54:21.539Z,10.80
2018-11-12T15:56:49.380Z,10.70
2018-11-12T15:59:16.994Z,10.80
2018-11-12T16:01:44.655Z,10.70
2018-11-12T16:04:12.209Z,10.80
2018-11-12T16:06:39.864Z,10.80
2018-11-12T16:09:11.545Z,10.80
2018-11-12T16:11:39.107Z,10.80
2018-11-12T16:14:07.202Z,10.80
2018-11-12T16:16:34.958Z,10.70
2018-11-12T16:19:03.038Z,10.70
2018-11-12T16:21:30.803Z,10.70
2018-11-12T16:23:58.430Z,10.80
2018-11-12T16:26:26.156Z,10.80
2018-11-12T16:28:53.731Z,10.90
2018-11-12T16:31:21.859Z,11.00
2018-11-12T16:33:49.519Z,11.00
2018-11-12T16:36:17.191Z,10.90
2018-11-12T16:38:44.789Z,10.90
2018-11-12T16:41:12.503Z,10.80
2018-11-12T16:43:40.197Z,10.70
2018-11-12T16:46:07.883Z,10.70
2018-11-12T16:48:35.510Z,10.70
2018-11-12T16:51:03.131Z,10.70
2018-11-12T16:53:30.746Z,10.80
2018-11-12T16:55:58.315Z,10.70
2018-11-12T16:58:25.893Z,10.80
2018-11-12T17:00:54.139Z,10.90
2018-11-12T17:03:21.783Z,10.80
2018-11-12T17:05:49.442Z,10.80
2018-11-12T17:08:17.135Z,10.80
2018-11-12T17:10:44.829Z,10.80
2018-11-12T17:13:12.460Z,10.70
2018-11-12T17:15:40.158Z,10.70
2018-11-12T17:18:07.853Z,10.70
2018-11-12T17:20:35.536Z,10.70
2018-11-12T17:23:03.331Z,10.60
2018-11-12T17:25:30.876Z,10.60
2018-11-12T17:27:58.573Z,10.60
2018-11-12T17:30:26.312Z,10.50
2018-11-12T17:32:54.226Z,10.60
2018-11-12T17:35:22.532Z,10.60
2018-11-12T17:37:50.372Z,10.50
2018-11-12T17:40:20.117Z,10.50
2018-11-12T17:42:48.569Z,10.50
2018-11-12T17:45:17.468Z,10.50
2018-11-12T17:47:46.444Z,10.40
2018-11-12T17:50:14.077Z,10.40
2018-11-12T17:52:42.106Z,10.30
2018-11-12T17:55:10.241Z,10.20
2018-11-12T17:57:38.219Z,10.20
2018-11-12T18:00:19.931Z,10.20
2018-11-12T18:02:48.429Z,10.10
2018-11-12T18:05:16.033Z,10.10
2018-11-12T18:07:43.847Z,10.10
2018-11-12T18:10:12.883Z,10.00
2018-11-12T18:12:40.472Z,10.00
2018-11-12T18:15:14.057Z,10.00
2018-11-12T18:17:42.321Z,10.10
2018-11-12T18:20:13.575Z,10.00
2018-11-12T18:22:41.273Z,9.90
2018-11-12T18:25:09.358Z,10.00
2018-11-12T18:27:37.517Z,10.00
2018-11-12T18:30:10.984Z,10.00
2018-11-12T18:32:38.692Z,9.90
2018-11-12T18:35:06.627Z,9.90
2018-11-12T18:37:34.713Z,10.00
2018-11-12T18:40:02.352Z,10.00
2018-11-12T18:42:29.931Z,9.90
2018-11-12T18:44:57.587Z,9.90
2018-11-12T18:47:25.219Z,9.90
2018-11-12T18:49:52.975Z,9.90
2018-11-12T18:52:20.691Z,9.80
2018-11-12T18:54:48.290Z,9.90
2018-11-12T18:57:15.945Z,9.90
2018-11-12T18:59:43.534Z,9.80
2018-11-12T19:02:11.429Z,9.80
2018-11-12T19:04:39.033Z,9.80
2018-11-12T19:07:07.089Z,9.80
2018-11-12T19:09:34.694Z,9.70
2018-11-12T19:12:02.340Z,9.70
2018-11-12T19:14:29.981Z,9.60
2018-11-12T19:16:57.583Z,9.60
2018-11-12T19:19:25.225Z,9.60
2018-11-12T19:21:52.934Z,9.60
2018-11-12T19:24:20.805Z,9.60
2018-11-12T19:26:48.435Z,9.60
2018-11-12T19:29:16.034Z,9.60
2018-11-12T19:31:43.784Z,9.60
2018-11-12T19:34:11.390Z,9.60
2018-11-12T19:36:39.066Z,9.60
2018-11-12T19:39:07.866Z,9.60
2018-11-12T19:41:35.533Z,9.60
2018-11-12T19:44:03.248Z,9.60
2018-11-12T19:46:30.894Z,9.50
2018-11-12T19:48:58.544Z,9.50
2018-11-12T19:51:26.289Z,9.50
2018-11-12T19:53:53.842Z,9.50
2018-11-12T19:56:21.538Z,9.50
2018-11-12T19:58:49.232Z,9.50
2018-11-12T20:01:16.859Z,9.50
2018-11-12T20:03:44.585Z,9.50
2018-11-12T20:06:12.286Z,9.50
2018-11-12T20:08:40.389Z,9.50
2018-11-12T20:11:08.050Z,9.50
2018-11-12T20:13:35.668Z,9.40
2018-11-12T20:16:03.440Z,9.50
2018-11-12T20:18:31.041Z,9.40
2018-11-12T20:20:59.019Z,9.50
2018-11-12T20:23:26.595Z,9.50
2018-11-12T20:25:54.228Z,9.50
2018-11-12T20:28:21.918Z,9.60
2018-11-12T20:30:49.514Z,9.60
2018-11-12T20:33:17.426Z,9.60
2018-11-12T20:35:45.027Z,9.60
2018-11-12T20:38:12.708Z,9.70
2018-11-12T20:40:40.624Z,9.60
2018-11-12T20:43:08.170Z,9.60
2018-11-12T20:45:35.766Z,9.70
2018-11-12T20:48:03.624Z,9.70
2018-11-12T20:50:31.223Z,9.60
2018-11-12T20:52:58.884Z,9.70
2018-11-12T20:55:26.559Z,9.60
2018-11-12T20:57:54.589Z,9.60
2018-11-12T21:00:23.640Z,9.60
2018-11-12T21:02:52.125Z,9.60
2018-11-12T21:05:22.007Z,9.50
2018-11-12T21:07:49.650Z,9.60
2018-11-12T21:10:18.160Z,9.70
2018-11-12T21:12:46.496Z,9.90
2018-11-12T21:15:15.215Z,9.80
2018-11-12T21:17:43.194Z,9.80
2018-11-12T21:20:13.931Z,9.80
2018-11-12T21:22:41.607Z,9.80
2018-11-12T21:25:10.488Z,9.80
2018-11-12T21:27:38.453Z,9.80
2018-11-12T21:30:10.100Z,10.00
2018-11-12T21:32:37.786Z,10.00
2018-11-12T21:35:06.448Z,10.00
2018-11-12T21:37:34.550Z,10.10
2018-11-12T21:40:02.399Z,10.10
2018-11-12T21:42:29.994Z,10.10
2018-11-12T21:44:57.582Z,10.00
2018-11-12T21:47:25.126Z,10.20
2018-11-12T21:49:52.810Z,10.20
2018-11-12T21:52:20.404Z,10.20
2018-11-12T21:54:48.138Z,10.20
2018-11-12T21:57:15.842Z,10.20
2018-11-12T21:59:43.573Z,10.30
2018-11-12T22:02:11.187Z,10.30
2018-11-12T22:04:38.765Z,10.20
2018-11-12T22:07:06.358Z,10.20
2018-11-12T22:09:33.933Z,10.20
2018-11-12T22:12:01.589Z,10.10
2018-11-12T22:14:29.213Z,10.20
2018-11-12T22:16:56.801Z,10.20
2018-11-12T22:19:24.415Z,10.20
2018-11-12T22:21:51.949Z,10.20
2018-11-12T22:24:19.598Z,10.20
2018-11-12T22:26:47.245Z,10.20
2018-11-12T22:29:14.933Z,10.20
2018-11-12T22:31:42.626Z,10.10
2018-11-12T22:34:10.289Z,10.10
2018-11-12T22:36:38.004Z,10.10
2018-11-12T22:39:07.707Z,10.10
2018-11-12T22:41:35.394Z,10.10
2018-11-12T22:44:03.051Z,10.20
2018-11-12T22:46:30.750Z,10.20
2018-11-12T22:48:58.318Z,10.30
2018-11-12T22:51:25.914Z,10.30
2018-11-12T22:53:53.532Z,10.30
2018-11-12T22:56:21.173Z,10.30
2018-11-12T22:58:48.815Z,10.30
2018-11-12T23:01:16.446Z,10.40
2018-11-12T23:03:44.392Z,10.50
2018-11-12T23:06:12.527Z,10.40
2018-11-12T23:08:41.044Z,10.50
2018-11-12T23:11:08.764Z,10.40
2018-11-12T23:13:36.633Z,10.40
2018-11-12T23:16:04.238Z,10.40
2018-11-12T23:18:32.050Z,10.50
2018-11-12T23:20:59.686Z,10.50
2018-11-12T23:23:27.229Z,10.50
2018-11-12T23:25:54.811Z,10.50
2018-11-12T23:28:22.426Z,10.60
2018-11-12T23:30:50.001Z,10.60
2018-11-12T23:33:17.593Z,10.60
2018-11-12T23:35:45.229Z,10.70
2018-11-12T23:38:12.832Z,10.70
2018-11-12T23:40:40.471Z,10.60
2018-11-12T23:43:08.084Z,10.70
2018-11-12T23:45:36.004Z,10.70
2018-11-12T23:48:03.885Z,10.70
2018-11-12T23:50:31.500Z,10.50
2018-11-12T23:52:59.088Z,10.50
2018-11-12T23:55:26.675Z,10.50
2018-11-12T23:57:54.264Z,10.50
